Terminal Aerodrome Forecast
Issued by NWS

Home | Current Version | Previous Version | Text Only | Print | Product List | Glossary On
Versions: 1 2 3 4 5 6 7 8 9 10 11 12 13 14 15 16
000
FTUS43 KGRR 170540
TAFJXN
TAF
KJXN 170540Z 1706/1806 12010KT 2SM RA BR OVC004
     FM170900 16006KT 1/2SM RA FG OVC003
     FM171400 22007KT 1 1/2SM -RA BR OVC003
     FM171700 26008KT 3SM BR OVC005
     FM180100 26008KT 1SM -RA BR OVC003=

USA.gov is the U.S. government's official web portal to all federal, state and local government web resources and services.